createdAt,value
2018-07-10T00:04:35.158Z,4.73
2018-07-10T00:10:30.159Z,4.47
2018-07-10T00:16:25.200Z,4.43
2018-07-10T00:22:20.211Z,4.86
2018-07-10T00:28:15.187Z,4.42
2018-07-10T00:34:10.196Z,4.74
2018-07-10T00:40:05.210Z,4.36
2018-07-10T00:46:00.226Z,4.23
2018-07-10T00:51:55.226Z,5.02
2018-07-10T00:57:50.218Z,4.64
2018-07-10T01:03:45.207Z,4.73
2018-07-10T01:09:40.277Z,4.69
2018-07-10T01:15:35.204Z,4.9
2018-07-10T01:21:30.229Z,5.27
2018-07-10T01:27:25.225Z,4.55
2018-07-10T01:33:20.274Z,4.81
2018-07-10T01:39:15.295Z,5.44
2018-07-10T01:45:10.259Z,5.23
2018-07-10T01:51:05.256Z,4.67
2018-07-10T01:57:00.246Z,5.71
2018-07-10T02:02:55.279Z,5.07
2018-07-10T02:08:50.310Z,5.27
2018-07-10T02:14:45.247Z,4.79
2018-07-10T02:20:40.295Z,4.67
2018-07-10T02:26:35.314Z,4.65
2018-07-10T02:32:30.308Z,4.6
2018-07-10T02:38:25.294Z,4.76
2018-07-10T02:44:20.297Z,4.81
2018-07-10T02:50:15.341Z,4.77
2018-07-10T02:56:10.312Z,4.57
2018-07-10T03:02:05.300Z,5.01
2018-07-10T03:08:00.345Z,4.88
2018-07-10T03:13:55.370Z,5.07
2018-07-10T03:19:50.330Z,5.84
2018-07-10T03:25:45.378Z,5.52
2018-07-10T03:31:40.331Z,5.37
2018-07-10T03:37:35.331Z,5.14
2018-07-10T03:43:30.437Z,5.38
2018-07-10T03:49:25.395Z,5.97
2018-07-10T03:55:20.354Z,5.63
2018-07-10T04:01:15.356Z,5.5
2018-07-10T04:07:10.339Z,5.23
2018-07-10T04:13:05.368Z,5.46
2018-07-10T04:19:00.385Z,4.73
2018-07-10T04:24:55.371Z,5.28
2018-07-10T04:30:50.353Z,5.34
2018-07-10T04:36:45.416Z,5.78
2018-07-10T04:42:40.436Z,5.34
2018-07-10T04:48:35.428Z,5.03
2018-07-10T04:54:30.390Z,5.06
2018-07-10T05:00:25.362Z,5.65
2018-07-10T05:06:20.451Z,5.48
2018-07-10T05:12:15.394Z,6.19
2018-07-10T05:18:10.382Z,5.61
2018-07-10T05:24:05.429Z,5.7
2018-07-10T05:30:00.403Z,5.47
2018-07-10T05:35:55.439Z,5.94
2018-07-10T05:41:50.444Z,6.43
2018-07-10T05:47:45.411Z,5.89
2018-07-10T05:53:40.428Z,6.68
2018-07-10T05:59:35.458Z,6.2
2018-07-10T06:05:30.443Z,6.17
2018-07-10T06:11:25.474Z,6.53
2018-07-10T06:17:20.436Z,7.03
2018-07-10T06:23:15.556Z,6.64
2018-07-10T06:29:10.447Z,7.37
2018-07-10T06:35:05.460Z,6.53
2018-07-10T06:41:00.451Z,6.87
2018-07-10T06:46:55.468Z,6.79
2018-07-10T06:52:50.643Z,7.33
2018-07-10T06:58:45.490Z,6.78
2018-07-10T07:04:40.553Z,6.84
2018-07-10T07:10:35.478Z,7.52
2018-07-10T07:16:30.487Z,8.48
2018-07-10T07:22:25.520Z,8.25
2018-07-10T07:28:20.504Z,9.49
2018-07-10T07:34:15.533Z,11.34
2018-07-10T07:40:11.096Z,10.24
2018-07-10T07:46:05.594Z,9.53
2018-07-10T07:52:00.521Z,9.2
2018-07-10T07:57:55.513Z,9.1
2018-07-10T08:03:50.548Z,8.15
2018-07-10T08:09:45.544Z,8.48
2018-07-10T08:15:40.607Z,7.56
2018-07-10T08:21:35.596Z,6.31
2018-07-10T08:27:30.563Z,6.27
2018-07-10T08:33:25.672Z,5.91
2018-07-10T08:39:20.595Z,5.37
2018-07-10T08:45:15.538Z,5.57
2018-07-10T08:51:10.596Z,4.19
2018-07-10T08:57:05.603Z,3.23
2018-07-10T09:03:00.648Z,3.39
2018-07-10T09:08:55.603Z,3.63
2018-07-10T09:14:50.621Z,3.04
2018-07-10T09:20:45.625Z,2.9
2018-07-10T09:26:40.606Z,3.51
2018-07-10T09:32:35.613Z,4.02
2018-07-10T09:38:30.636Z,3.36
2018-07-10T09:44:25.702Z,3.48
2018-07-10T09:50:20.739Z,3.32
2018-07-10T09:56:15.613Z,2.88
2018-07-10T10:02:10.619Z,3.09
2018-07-10T10:08:05.651Z,3.1
2018-07-10T10:14:00.617Z,2.64
2018-07-10T10:19:55.629Z,3.04
2018-07-10T10:25:50.843Z,2.97
2018-07-10T10:31:45.685Z,2.56
2018-07-10T10:37:40.663Z,2.91
2018-07-10T10:43:35.714Z,2.78
2018-07-10T10:49:30.697Z,3
2018-07-10T10:55:25.753Z,3.2
2018-07-10T11:01:20.684Z,2.67
2018-07-10T11:07:15.693Z,2.87
2018-07-10T11:13:10.741Z,3.14
2018-07-10T11:19:05.724Z,3.93
2018-07-10T11:25:00.706Z,2.89
2018-07-10T11:30:55.696Z,2.81
2018-07-10T11:36:50.718Z,2.19
2018-07-10T11:42:45.714Z,1.95
2018-07-10T11:48:40.692Z,2.24
2018-07-10T11:54:35.817Z,2.09
2018-07-10T12:00:30.780Z,2.05
2018-07-10T12:06:25.721Z,2.24
2018-07-10T12:12:20.717Z,2.15
2018-07-10T12:18:15.720Z,2.16
2018-07-10T12:24:10.790Z,2.11
2018-07-10T12:30:05.800Z,3.01
2018-07-10T12:36:00.765Z,2.31
2018-07-10T12:41:55.798Z,2.84
2018-07-10T12:47:50.779Z,2.93
2018-07-10T12:53:45.765Z,3.76
2018-07-10T12:59:40.770Z,3.08
2018-07-10T13:05:35.849Z,3.51
2018-07-10T13:11:30.768Z,3.71
2018-07-10T13:17:25.843Z,3.81
2018-07-10T13:23:20.779Z,3.03
2018-07-10T13:29:15.825Z,3.46
2018-07-10T13:35:10.893Z,3.33
2018-07-10T13:41:05.804Z,3.56
2018-07-10T13:47:00.820Z,3.5
2018-07-10T13:52:55.847Z,3.28
2018-07-10T13:58:50.837Z,3.44
2018-07-10T14:04:45.839Z,3.52
2018-07-10T14:10:40.856Z,3.8
2018-07-10T14:16:35.841Z,3.47
2018-07-10T14:22:30.889Z,3.34
2018-07-10T14:28:26.006Z,2.48
2018-07-10T14:34:20.980Z,2.14
2018-07-10T14:40:15.929Z,2.19
2018-07-10T14:46:10.876Z,2.27
2018-07-10T14:52:05.885Z,2.03
2018-07-10T14:58:00.922Z,1.88
2018-07-10T15:03:55.943Z,1.93
2018-07-10T15:09:50.992Z,1.9
2018-07-10T15:15:45.912Z,2.32
2018-07-10T15:21:40.922Z,2.19
2018-07-10T15:27:35.920Z,2.11
2018-07-10T15:33:30.991Z,2
2018-07-10T15:39:25.929Z,2.09
2018-07-10T15:45:20.943Z,2.05
2018-07-10T15:51:15.948Z,2.01
2018-07-10T15:57:10.944Z,2.07
2018-07-10T16:03:05.940Z,1.92
2018-07-10T16:09:00.975Z,1.97
2018-07-10T16:14:56.073Z,2.63
2018-07-10T16:20:50.986Z,2.58
2018-07-10T16:26:46.036Z,2.8
2018-07-10T16:32:41.031Z,3.29
2018-07-10T16:38:36.008Z,2.98
2018-07-10T16:44:31.004Z,3.4
2018-07-10T16:50:26.093Z,3.32
2018-07-10T16:56:21.018Z,3.3
2018-07-10T17:02:16.053Z,3.35
2018-07-10T17:08:11.029Z,3.71
2018-07-10T17:14:06.018Z,3.27
2018-07-10T17:20:01.009Z,3.96
2018-07-10T17:25:56.112Z,3.29
2018-07-10T17:31:51.045Z,3.34
2018-07-10T17:37:46.062Z,3.38
2018-07-10T17:43:41.086Z,3.12
2018-07-10T17:49:36.100Z,3.18
2018-07-10T17:55:31.051Z,3.13
2018-07-10T18:01:26.079Z,3.17
2018-07-10T18:07:21.206Z,3.09
2018-07-10T18:13:16.047Z,3.86
2018-07-10T18:19:11.144Z,3.76
2018-07-10T18:25:06.056Z,3.58
2018-07-10T18:31:01.113Z,3.49
2018-07-10T18:36:56.111Z,3.64
2018-07-10T18:42:51.120Z,3.39
2018-07-10T18:48:46.163Z,3.77
2018-07-10T18:54:41.129Z,3.66
2018-07-10T19:00:36.301Z,3.92
2018-07-10T19:06:31.154Z,3.95
2018-07-10T19:12:26.189Z,3.57
2018-07-10T19:18:21.151Z,4.27
2018-07-10T19:24:16.354Z,3.94
2018-07-10T19:30:11.194Z,4.13
2018-07-10T19:36:06.147Z,3.9
2018-07-10T19:42:01.195Z,4.2
2018-07-10T19:47:56.158Z,3.62
2018-07-10T19:53:51.145Z,4.32
2018-07-10T19:59:46.194Z,4.08
2018-07-10T20:05:41.257Z,4.88
2018-07-10T20:11:36.153Z,4.55
2018-07-10T20:17:31.299Z,4.71
2018-07-10T20:23:26.224Z,4.82
2018-07-10T20:29:21.202Z,4.46
2018-07-10T20:35:16.202Z,4.39
2018-07-10T20:41:11.210Z,5.27
2018-07-10T20:47:06.268Z,5.85
2018-07-10T20:53:01.269Z,4.93
2018-07-10T20:58:56.283Z,5.07
2018-07-10T21:04:51.209Z,5.06
2018-07-10T21:10:46.205Z,4.86
2018-07-10T21:16:41.296Z,4.56
2018-07-10T21:22:36.259Z,4.6
2018-07-10T21:28:31.284Z,4.96
2018-07-10T21:34:26.268Z,5.16
2018-07-10T21:40:21.232Z,6.5
2018-07-10T21:46:16.247Z,5.7
2018-07-10T21:52:11.300Z,6.08
2018-07-10T21:58:06.317Z,5.77
2018-07-10T22:04:01.250Z,5.71
2018-07-10T22:09:56.333Z,5.64
2018-07-10T22:15:51.292Z,6.15
2018-07-10T22:21:46.283Z,6.11
2018-07-10T22:27:41.285Z,5.79
2018-07-10T22:33:36.285Z,6.02
2018-07-10T22:39:31.319Z,6.04
2018-07-10T22:45:26.389Z,6.27
2018-07-10T22:51:21.340Z,6.37
2018-07-10T22:57:16.305Z,6.49
2018-07-10T23:03:11.297Z,6.91
2018-07-10T23:09:06.336Z,7.17
2018-07-10T23:15:01.411Z,6.38
2018-07-10T23:20:56.301Z,6.67
2018-07-10T23:26:51.312Z,6.9
2018-07-10T23:32:46.342Z,6.98
2018-07-10T23:38:41.488Z,6.83
2018-07-10T23:44:36.333Z,7.39
2018-07-10T23:50:31.453Z,6.53
2018-07-10T23:56:26.361Z,6.48
